PST,Max TemperatureF,Mean TemperatureF,Min TemperatureF,Max Dew PointF,MeanDew PointF,Min DewpointF,Max Humidity, Mean Humidity, Min Humidity, Max Sea Level PressureIn, Mean Sea Level PressureIn, Min Sea Level PressureIn, Max VisibilityMiles, Mean VisibilityMiles, Min VisibilityMiles, Max Wind SpeedMPH, Mean Wind SpeedMPH, Max Gust SpeedMPH,PrecipitationIn, CloudCover, Events, WindDirDegrees
2012-1-1,81,64,47,30,21,14,42,25,8,30.27,30.20,30.13,10,10,10,10,4,12,0.00,0,,339
2012-1-2,82,65,47,31,22,15,38,24,9,30.29,30.22,30.17,10,10,10,12,4,26,0.00,0,,328
2012-1-3,82,66,50,32,25,20,50,30,10,30.27,30.22,30.16,10,10,10,10,4,13,0.00,0,,332
2012-1-4,81,66,50,33,25,21,44,28,12,30.31,30.25,30.22,10,10,10,10,6,12,0.00,0,,350
2012-1-5,80,65,50,30,24,18,38,24,10,30.22,30.12,30.00,10,10,10,10,5,12,0.00,1,,327
2012-1-6,78,63,47,35,26,21,41,27,12,30.04,29.97,29.93,10,10,10,12,4,13,0.00,0,,350
2012-1-7,77,62,46,32,23,4,50,29,8,30.10,29.97,29.91,10,10,10,23,5,30,0.00,0,,331
2012-1-8,74,63,52,16,11,4,19,13,7,30.22,30.15,30.09,10,10,10,20,6,25,0.00,0,,308
2012-1-9,74,62,50,29,19,10,32,23,13,30.28,30.21,30.14,10,10,10,9,4,22,0.00,0,,310
2012-1-10,72,59,46,31,26,23,42,29,16,30.19,30.11,30.04,10,10,10,10,4,13,0.00,0,,341
2012-1-11,72,60,48,35,28,18,50,33,16,30.08,30.03,29.98,10,10,10,10,4,16,0.00,1,,328
2012-1-12,75,64,52,23,11,0,26,16,6,30.12,30.06,30.01,10,10,10,15,4,23,0.00,1,,304
2012-1-13,75,61,47,13,2,-7,15,10,4,30.26,30.19,30.13,10,10,10,9,4,12,0.00,0,,271
2012-1-14,68,56,44,27,12,3,25,17,9,30.20,30.15,30.10,10,10,10,9,4,10,0.00,2,,330
2012-1-15,65,55,44,33,18,7,42,28,13,30.13,30.06,30.01,10,10,10,10,4,14,0.00,4,,44
2012-1-16,68,57,46,38,34,28,60,44,28,30.11,30.03,29.99,10,10,10,15,4,20,0.00,1,,308
2012-1-17,66,53,39,33,31,28,70,48,26,30.28,30.22,30.12,10,10,10,9,2,14,0.00,0,,354
2012-1-18,68,54,39,32,28,24,65,43,21,30.31,30.22,30.15,10,10,10,12,4,15,0.00,0,,353
2012-1-19,72,57,41,32,27,21,62,39,16,30.13,30.04,29.95,10,10,10,9,5,13,0.00,0,,314
2012-1-20,74,61,48,37,31,27,54,37,20,30.04,29.98,29.94,10,10,10,9,4,12,0.00,1,,131
2012-1-21,82,68,53,43,28,1,64,35,6,29.99,29.81,29.68,10,8,2,40,5,66,0.00,3,Rain,323
2012-1-22,68,57,45,38,32,27,62,43,24,30.14,30.08,30.01,10,10,10,10,2,13,0.00,1,,139
2012-1-23,61,54,46,49,40,32,77,58,39,30.06,29.95,29.85,10,10,6,14,2,16,0.03,3,,132
2012-1-24,71,58,44,44,29,14,86,52,17,30.24,30.13,29.98,10,10,10,22,6,28,0.00,1,,256
2012-1-25,83,68,53,36,31,17,38,27,15,30.27,30.18,30.11,10,10,10,21,5,28,0.00,0,Rain,290
2012-1-26,81,66,50,41,36,34,61,40,18,30.15,30.05,29.93,10,10,10,9,3,10,0.00,0,,67
2012-1-27,78,66,53,39,26,9,59,37,14,30.21,30.08,29.93,10,10,10,18,8,26,0.00,2,,331
2012-1-28,77,68,58,10,1,-9,13,8,3,30.31,30.26,30.19,10,10,10,21,9,28,0.00,0,,314
2012-1-29,78,62,46,19,6,-5,18,11,4,30.27,30.18,30.08,10,10,10,9,5,12,0.00,0,,322
2012-1-30,74,60,46,24,14,6,28,18,7,30.06,29.98,29.92,10,10,10,13,6,15,0.00,0,,359
2012-1-31,80,63,45,33,19,9,39,23,7,30.12,30.01,29.94,10,10,10,10,2,12,0.00,0,,60